sensor_id;sensor_type;location;lat;lon;timestamp;temperature;humidity
36752;DHT22;22718;49.494;7.036;2024-03-25T01:57:29;2.60;99.90
36752;DHT22;22718;49.494;7.036;2024-03-25T02:03:01;2.60;99.90
36752;DHT22;22718;49.494;7.036;2024-03-25T03:53:19;1.70;99.90
36752;DHT22;22718;49.494;7.036;2024-03-25T03:55:57;1.70;99.90
36752;DHT22;22718;49.494;7.036;2024-03-25T03:58:24;1.70;99.90
36752;DHT22;22718;49.494;7.036;2024-03-25T04:00:53;1.70;99.90
36752;DHT22;22718;49.494;7.036;2024-03-25T04:08:00;1.70;99.90
36752;DHT22;22718;49.494;7.036;2024-03-25T05:23:37;1.40;99.90
36752;DHT22;22718;49.494;7.036;2024-03-25T05:26:03;1.50;99.90
36752;DHT22;22718;49.494;7.036;2024-03-25T05:28:34;1.50;99.90
36752;DHT22;22718;49.494;7.036;2024-03-25T05:31:28;1.50;99.90
36752;DHT22;22718;49.494;7.036;2024-03-25T05:33:59;1.50;99.90
36752;DHT22;22718;49.494;7.036;2024-03-25T05:36:45;1.60;99.90
36752;DHT22;22718;49.494;7.036;2024-03-25T05:39:34;1.60;99.90
36752;DHT22;22718;49.494;7.036;2024-03-25T05:42:08;1.70;99.90
36752;DHT22;22718;49.494;7.036;2024-03-25T05:44:37;1.70;99.90
36752;DHT22;22718;49.494;7.036;2024-03-25T05:47:27;1.80;99.90
36752;DHT22;22718;49.494;7.036;2024-03-25T05:50:03;1.90;99.90
36752;DHT22;22718;49.494;7.036;2024-03-25T05:52:35;1.90;99.90
36752;DHT22;22718;49.494;7.036;2024-03-25T06:15:53;2.60;99.90
36752;DHT22;22718;49.494;7.036;2024-03-25T06:18:19;2.70;99.90
36752;DHT22;22718;49.494;7.036;2024-03-25T06:20:44;2.80;99.90
36752;DHT22;22718;49.494;7.036;2024-03-25T06:23:37;2.90;99.90
36752;DHT22;22718;49.494;7.036;2024-03-25T15:02:38;10.70;99.90
36752;DHT22;22718;49.494;7.036;2024-03-25T15:12:16;10.50;99.90
36752;DHT22;22718;49.494;7.036;2024-03-25T15:19:19;10.50;99.90
36752;DHT22;22718;49.494;7.036;2024-03-25T15:37:56;10.50;99.90
36752;DHT22;22718;49.494;7.036;2024-03-25T15:40:21;10.50;99.90
36752;DHT22;22718;49.494;7.036;2024-03-25T15:42:47;10.50;99.90
36752;DHT22;22718;49.494;7.036;2024-03-25T15:45:17;10.40;99.90
36752;DHT22;22718;49.494;7.036;2024-03-25T15:47:43;10.30;99.90
36752;DHT22;22718;49.494;7.036;2024-03-25T15:50:10;10.30;99.90
36752;DHT22;22718;49.494;7.036;2024-03-25T15:52:35;10.30;99.90
36752;DHT22;22718;49.494;7.036;2024-03-25T15:55:01;10.30;99.90
36752;DHT22;22718;49.494;7.036;2024-03-25T16:01:18;10.20;99.90
36752;DHT22;22718;49.494;7.036;2024-03-25T18:22:25;7.10;99.90
36752;DHT22;22718;49.494;7.036;2024-03-25T18:24:55;7.00;99.90
36752;DHT22;22718;49.494;7.036;2024-03-25T18:27:22;7.00;99.90
36752;DHT22;22718;49.494;7.036;2024-03-25T18:29:49;7.00;99.90
36752;DHT22;22718;49.494;7.036;2024-03-25T18:32:45;6.90;99.90
36752;DHT22;22718;49.494;7.036;2024-03-25T18:35:23;6.90;99.90
36752;DHT22;22718;49.494;7.036;2024-03-25T18:37:50;6.80;99.90
36752;DHT22;22718;49.494;7.036;2024-03-25T18:40:15;6.80;99.90
36752;DHT22;22718;49.494;7.036;2024-03-25T18:42:42;6.80;99.90
36752;DHT22;22718;49.494;7.036;2024-03-25T18:45:39;6.70;99.90
36752;DHT22;22718;49.494;7.036;2024-03-25T18:48:29;6.70;99.90
36752;DHT22;22718;49.494;7.036;2024-03-25T18:50:56;6.60;99.90
36752;DHT22;22718;49.494;7.036;2024-03-25T18:53:39;6.60;99.90
36752;DHT22;22718;49.494;7.036;2024-03-25T18:56:19;6.60;99.90
36752;DHT22;22718;49.494;7.036;2024-03-25T18:58:57;6.60;99.90
36752;DHT22;22718;49.494;7.036;2024-03-25T19:01:24;6.50;99.90
36752;DHT22;22718;49.494;7.036;2024-03-25T19:03:52;6.50;99.90
36752;DHT22;22718;49.494;7.036;2024-03-25T19:06:30;6.40;99.90
36752;DHT22;22718;49.494;7.036;2024-03-25T19:08:59;6.40;99.90
36752;DHT22;22718;49.494;7.036;2024-03-25T19:11:25;6.30;99.90
36752;DHT22;22718;49.494;7.036;2024-03-25T19:13:51;6.30;99.90
36752;DHT22;22718;49.494;7.036;2024-03-25T19:16:16;6.30;99.90
36752;DHT22;22718;49.494;7.036;2024-03-25T19:18:43;6.20;99.90
36752;DHT22;22718;49.494;7.036;2024-03-25T19:21:08;6.20;99.90
36752;DHT22;22718;49.494;7.036;2024-03-25T19:23:35;6.20;99.90
36752;DHT22;22718;49.494;7.036;2024-03-25T19:26:08;6.10;99.90
36752;DHT22;22718;49.494;7.036;2024-03-25T19:28:37;6.10;99.90
36752;DHT22;22718;49.494;7.036;2024-03-25T19:31:06;6.10;99.90
36752;DHT22;22718;49.494;7.036;2024-03-25T19:33:34;6.10;99.90
36752;DHT22;22718;49.494;7.036;2024-03-25T19:36:28;6.10;99.90
36752;DHT22;22718;49.494;7.036;2024-03-25T19:39:16;6.00;99.90
36752;DHT22;22718;49.494;7.036;2024-03-25T19:41:44;6.00;99.90
36752;DHT22;22718;49.494;7.036;2024-03-25T19:44:28;6.00;99.90
36752;DHT22;22718;49.494;7.036;2024-03-25T19:46:54;6.00;99.90
36752;DHT22;22718;49.494;7.036;2024-03-25T19:49:20;6.00;99.90
36752;DHT22;22718;49.494;7.036;2024-03-25T19:51:46;6.00;99.90
36752;DHT22;22718;49.494;7.036;2024-03-25T19:54:15;6.00;99.90
36752;DHT22;22718;49.494;7.036;2024-03-25T19:56:46;5.90;99.90
36752;DHT22;22718;49.494;7.036;2024-03-25T19:59:12;5.90;99.90
36752;DHT22;22718;49.494;7.036;2024-03-25T20:01:40;5.90;99.90
36752;DHT22;22718;49.494;7.036;2024-03-25T20:04:06;5.90;99.90
36752;DHT22;22718;49.494;7.036;2024-03-25T20:06:33;5.90;99.90
36752;DHT22;22718;49.494;7.036;2024-03-25T20:08:59;5.80;99.90
36752;DHT22;22718;49.494;7.036;2024-03-25T20:11:24;5.80;99.90
36752;DHT22;22718;49.494;7.036;2024-03-25T20:13:54;5.80;99.90
36752;DHT22;22718;49.494;7.036;2024-03-25T20:16:40;5.80;99.90
36752;DHT22;22718;49.494;7.036;2024-03-25T20:19:10;5.80;99.90
36752;DHT22;22718;49.494;7.036;2024-03-25T20:21:39;5.80;99.90
36752;DHT22;22718;49.494;7.036;2024-03-25T20:24:06;5.80;99.90
36752;DHT22;22718;49.494;7.036;2024-03-25T20:26:33;5.80;99.90
36752;DHT22;22718;49.494;7.036;2024-03-25T20:28:59;5.70;99.90
36752;DHT22;22718;49.494;7.036;2024-03-25T20:31:25;5.70;99.90
36752;DHT22;22718;49.494;7.036;2024-03-25T20:33:53;5.70;99.90
36752;DHT22;22718;49.494;7.036;2024-03-25T20:36:18;5.80;99.90
36752;DHT22;22718;49.494;7.036;2024-03-25T20:38:44;5.70;99.90
36752;DHT22;22718;49.494;7.036;2024-03-25T20:41:10;5.80;99.90
36752;DHT22;22718;49.494;7.036;2024-03-25T20:43:39;5.70;99.90
36752;DHT22;22718;49.494;7.036;2024-03-25T20:46:05;5.70;99.90
36752;DHT22;22718;49.494;7.036;2024-03-25T20:48:30;5.70;99.90
36752;DHT22;22718;49.494;7.036;2024-03-25T20:51:01;5.70;99.90
36752;DHT22;22718;49.494;7.036;2024-03-25T20:53:37;5.70;99.90
36752;DHT22;22718;49.494;7.036;2024-03-25T20:56:03;5.70;99.90
36752;DHT22;22718;49.494;7.036;2024-03-25T20:58:30;5.70;99.90
36752;DHT22;22718;49.494;7.036;2024-03-25T21:00:56;5.70;99.90
36752;DHT22;22718;49.494;7.036;2024-03-25T21:03:22;5.70;99.90
36752;DHT22;22718;49.494;7.036;2024-03-25T21:05:57;5.70;99.90
36752;DHT22;22718;49.494;7.036;2024-03-25T21:08:25;5.70;99.90
36752;DHT22;22718;49.494;7.036;2024-03-25T21:10:51;5.70;99.90
36752;DHT22;22718;49.494;7.036;2024-03-25T21:13:17;5.70;99.90
36752;DHT22;22718;49.494;7.036;2024-03-25T21:15:42;5.70;99.90
36752;DHT22;22718;49.494;7.036;2024-03-25T21:18:08;5.70;99.90
36752;DHT22;22718;49.494;7.036;2024-03-25T21:20:53;5.70;99.90
36752;DHT22;22718;49.494;7.036;2024-03-25T21:23:19;5.70;99.90
36752;DHT22;22718;49.494;7.036;2024-03-25T21:25:44;5.70;99.90
36752;DHT22;22718;49.494;7.036;2024-03-25T21:28:20;5.70;99.90
36752;DHT22;22718;49.494;7.036;2024-03-25T21:30:47;5.70;99.90
36752;DHT22;22718;49.494;7.036;2024-03-25T21:33:13;5.70;99.90
36752;DHT22;22718;49.494;7.036;2024-03-25T21:35:42;5.80;99.90
36752;DHT22;22718;49.494;7.036;2024-03-25T21:38:08;5.80;99.90
36752;DHT22;22718;49.494;7.036;2024-03-25T21:40:35;5.80;99.90
36752;DHT22;22718;49.494;7.036;2024-03-25T21:43:02;5.80;99.90
36752;DHT22;22718;49.494;7.036;2024-03-25T21:45:28;5.80;99.90
36752;DHT22;22718;49.494;7.036;2024-03-25T21:47:54;5.70;99.90
36752;DHT22;22718;49.494;7.036;2024-03-25T21:50:20;5.80;99.90
36752;DHT22;22718;49.494;7.036;2024-03-25T21:53:03;5.70;99.90
36752;DHT22;22718;49.494;7.036;2024-03-25T21:55:29;5.70;99.90
36752;DHT22;22718;49.494;7.036;2024-03-25T21:57:57;5.70;99.90
36752;DHT22;22718;49.494;7.036;2024-03-25T22:00:28;5.70;99.90
36752;DHT22;22718;49.494;7.036;2024-03-25T22:02:53;5.70;99.90
36752;DHT22;22718;49.494;7.036;2024-03-25T22:05:27;5.70;99.90
36752;DHT22;22718;49.494;7.036;2024-03-25T22:08:00;5.70;99.90
36752;DHT22;22718;49.494;7.036;2024-03-25T22:10:30;5.70;99.90
36752;DHT22;22718;49.494;7.036;2024-03-25T22:13:00;5.70;99.90
36752;DHT22;22718;49.494;7.036;2024-03-25T22:15:35;5.70;99.90
36752;DHT22;22718;49.494;7.036;2024-03-25T22:18:01;5.70;99.90
36752;DHT22;22718;49.494;7.036;2024-03-25T22:20:26;5.70;99.90
36752;DHT22;22718;49.494;7.036;2024-03-25T22:23:08;5.70;99.90
36752;DHT22;22718;49.494;7.036;2024-03-25T22:25:35;5.70;99.90
36752;DHT22;22718;49.494;7.036;2024-03-25T22:28:01;5.70;99.90
36752;DHT22;22718;49.494;7.036;2024-03-25T22:30:43;5.70;99.90
36752;DHT22;22718;49.494;7.036;2024-03-25T22:33:31;5.70;99.90
36752;DHT22;22718;49.494;7.036;2024-03-25T22:35:59;5.60;99.90
36752;DHT22;22718;49.494;7.036;2024-03-25T22:38:25;5.60;99.90
36752;DHT22;22718;49.494;7.036;2024-03-25T22:40:51;5.60;99.90
36752;DHT22;22718;49.494;7.036;2024-03-25T22:43:22;5.60;99.90
36752;DHT22;22718;49.494;7.036;2024-03-25T22:46:01;5.60;99.90
36752;DHT22;22718;49.494;7.036;2024-03-25T22:48:27;5.60;99.90
36752;DHT22;22718;49.494;7.036;2024-03-25T22:53:43;5.60;99.90
36752;DHT22;22718;49.494;7.036;2024-03-25T22:56:12;5.60;99.90
36752;DHT22;22718;49.494;7.036;2024-03-25T22:58:39;5.60;99.90
36752;DHT22;22718;49.494;7.036;2024-03-25T23:01:08;5.60;99.90
36752;DHT22;22718;49.494;7.036;2024-03-25T23:03:35;5.50;99.90
36752;DHT22;22718;49.494;7.036;2024-03-25T23:06:03;5.50;99.90
36752;DHT22;22718;49.494;7.036;2024-03-25T23:08:29;5.50;99.90
36752;DHT22;22718;49.494;7.036;2024-03-25T23:10:59;5.50;99.90
36752;DHT22;22718;49.494;7.036;2024-03-25T23:13:26;5.50;99.90
36752;DHT22;22718;49.494;7.036;2024-03-25T23:15:52;5.50;99.90
36752;DHT22;22718;49.494;7.036;2024-03-25T23:18:18;5.50;99.90
36752;DHT22;22718;49.494;7.036;2024-03-25T23:20:45;5.50;99.90
36752;DHT22;22718;49.494;7.036;2024-03-25T23:23:16;5.40;99.90
36752;DHT22;22718;49.494;7.036;2024-03-25T23:25:43;5.40;99.90
36752;DHT22;22718;49.494;7.036;2024-03-25T23:28:09;5.40;99.90
36752;DHT22;22718;49.494;7.036;2024-03-25T23:30:36;5.40;99.90
36752;DHT22;22718;49.494;7.036;2024-03-25T23:33:02;5.40;99.90
36752;DHT22;22718;49.494;7.036;2024-03-25T23:35:32;5.40;99.90
36752;DHT22;22718;49.494;7.036;2024-03-25T23:38:00;5.40;99.90
36752;DHT22;22718;49.494;7.036;2024-03-25T23:40:26;5.40;99.90
36752;DHT22;22718;49.494;7.036;2024-03-25T23:42:51;5.40;99.90
36752;DHT22;22718;49.494;7.036;2024-03-25T23:45:18;5.40;99.90
36752;DHT22;22718;49.494;7.036;2024-03-25T23:47:46;5.40;99.90
36752;DHT22;22718;49.494;7.036;2024-03-25T23:50:12;5.40;99.90
36752;DHT22;22718;49.494;7.036;2024-03-25T23:52:37;5.40;99.90
36752;DHT22;22718;49.494;7.036;2024-03-25T23:55:03;5.30;99.90
36752;DHT22;22718;49.494;7.036;2024-03-25T23:57:31;5.30;99.90
36752;DHT22;22718;49.494;7.036;2024-03-25T23:59:57;5.30;99.90
